Time;durP1;ratioP1;P1;durP2;ratioP2;P2;SDS_P1;SDS_P2;PMS_P1;PMS_P2;Temp;Humidity;BMP_temperature;BMP_pressure;BME280_temperature;BME280_humidity;BME280_pressure;Samples;Min_cycle;Max_cycle;Signal;HPM_P1;HPM_P2
2021/03/03 00:01:07;;;;;;;19.53;17.17;;;;;;;7.74;57.83;103001.38;6187705;28;20326;-54
2021/03/03 00:04:28;;;;;;;18.13;16.30;;;;;;;7.68;57.79;102993.38;6213542;28;20505;-56
2021/03/03 00:07:48;;;;;;;18.20;16.30;;;;;;;7.58;58.13;102989.56;6204225;28;20519;-56
2021/03/03 00:11:09;;;;;;;19.93;17.33;;;;;;;7.37;58.78;102987.03;6206322;28;20233;-55
2021/03/03 00:14:29;;;;;;;22.03;18.10;;;;;;;7.47;58.02;102991.72;6194063;28;20221;-54
2021/03/03 00:17:50;;;;;;;19.20;16.57;;;;;;;7.35;58.75;102975.72;6196075;28;20226;-54
2021/03/03 00:21:12;;;;;;;20.83;17.50;;;;;;;7.42;58.11;102987.19;6221490;28;20228;-52
2021/03/03 00:24:32;;;;;;;18.83;16.37;;;;;;;7.46;57.93;102978.69;6204423;28;20229;-53
2021/03/03 00:27:52;;;;;;;20.43;17.93;;;;;;;7.35;57.98;102978.31;6207866;28;20229;-54
2021/03/03 00:31:13;;;;;;;18.40;16.47;;;;;;;7.25;58.31;102981.34;6215205;28;20614;-52
2021/03/03 00:34:33;;;;;;;19.90;17.77;;;;;;;7.23;58.80;102975.22;6195966;28;20234;-56
2021/03/03 00:37:55;;;;;;;19.00;17.00;;;;;;;7.27;58.28;102983.19;6214140;28;20229;-55
2021/03/03 00:41:15;;;;;;;20.90;17.57;;;;;;;7.25;58.34;102976.16;6212835;28;20248;-56
2021/03/03 00:44:36;;;;;;;21.47;17.73;;;;;;;7.25;58.13;102974.47;6217649;28;20496;-53
2021/03/03 00:47:57;;;;;;;17.00;14.90;;;;;;;6.82;60.44;102977.03;6198329;28;20263;-55
2021/03/03 00:51:19;;;;;;;18.17;16.20;;;;;;;7.10;59.20;102973.88;6198536;28;20233;-57
2021/03/03 00:54:43;;;;;;;19.30;17.27;;;;;;;7.13;59.27;102971.38;6202342;28;20228;-52
2021/03/03 00:58:05;;;;;;;19.07;17.03;;;;;;;7.15;58.24;102961.06;6196201;28;20242;-55
2021/03/03 01:01:26;;;;;;;21.80;19.20;;;;;;;6.94;59.25;102966.28;6223311;28;20310;-55
2021/03/03 01:04:47;;;;;;;21.13;18.83;;;;;;;6.99;58.88;102959.59;6197484;28;20222;-54
2021/03/03 01:08:08;;;;;;;20.10;16.90;;;;;;;6.91;59.10;102948.94;6193093;28;20237;-55
2021/03/03 01:11:29;;;;;;;20.33;18.23;;;;;;;6.78;59.46;102944.94;6218123;28;20324;-52
2021/03/03 01:14:54;;;;;;;20.60;18.40;;;;;;;6.84;59.47;102955.59;6215398;28;20236;-52
2021/03/03 01:18:14;;;;;;;21.63;17.40;;;;;;;6.81;59.64;102939.91;6192495;28;20543;-51
2021/03/03 01:21:35;;;;;;;19.27;17.00;;;;;;;6.81;59.16;102939.03;6195894;28;20317;-55
2021/03/03 01:24:55;;;;;;;20.77;18.37;;;;;;;6.68;59.92;102935.91;6185292;28;20230;-53
2021/03/03 01:28:16;;;;;;;20.27;18.17;;;;;;;6.73;59.83;102936.13;6213199;28;20241;-54
2021/03/03 01:31:37;;;;;;;23.73;18.03;;;;;;;6.53;60.97;102926.66;6203087;28;20229;-51
2021/03/03 01:34:57;;;;;;;19.87;17.03;;;;;;;6.32;61.83;102927.53;6206231;28;20249;-56
2021/03/03 01:38:18;;;;;;;23.77;18.80;;;;;;;6.58;61.17;102919.97;6206323;28;20614;-55
2021/03/03 01:41:39;;;;;;;23.57;20.83;;;;;;;6.76;59.85;102918.09;6202315;28;20236;-54
2021/03/03 01:45:00;;;;;;;19.90;17.17;;;;;;;6.77;59.58;102909.53;6189103;28;20229;-55
2021/03/03 01:48:21;;;;;;;23.80;18.47;;;;;;;6.72;59.66;102904.97;6204210;28;20324;-53
2021/03/03 01:51:41;;;;;;;20.40;18.30;;;;;;;6.64;59.89;102904.66;6213844;28;20230;-53
2021/03/03 01:55:02;;;;;;;21.53;17.17;;;;;;;6.58;60.05;102905.31;6219444;28;20257;-55
2021/03/03 01:58:22;;;;;;;21.17;18.67;;;;;;;6.48;60.68;102883.34;6208585;28;20221;-56
2021/03/03 02:01:44;;;;;;;21.60;18.83;;;;;;;6.49;60.47;102882.53;6209431;28;20619;-55
2021/03/03 02:05:06;;;;;;;21.87;18.43;;;;;;;6.23;61.79;102876.25;6218606;28;20236;-53
2021/03/03 02:08:35;;;;;;;21.77;17.73;;;;;;;6.14;62.11;102870.69;6212562;28;20225;-55
2021/03/03 02:12:02;;;;;;;23.77;18.80;;;;;;;6.34;61.05;102871.56;6217800;28;20529;-54
2021/03/03 02:15:23;;;;;;;22.03;18.37;;;;;;;6.02;62.32;102873.66;6216500;28;20232;-55
2021/03/03 02:18:46;;;;;;;19.53;17.57;;;;;;;5.93;62.64;102875.81;6215013;28;20308;-54
2021/03/03 02:22:11;;;;;;;21.63;19.30;;;;;;;5.90;62.85;102866.22;6217774;28;20650;-52
2021/03/03 02:25:36;;;;;;;20.50;18.27;;;;;;;5.81;62.90;102854.59;6217911;28;20232;-56
2021/03/03 02:28:58;;;;;;;22.23;19.43;;;;;;;6.00;61.63;102851.13;6216403;28;20233;-53
2021/03/03 02:32:19;;;;;;;23.80;21.30;;;;;;;6.03;61.54;102841.81;6217236;28;20748;-56
2021/03/03 02:35:41;;;;;;;21.13;17.73;;;;;;;5.91;61.90;102836.06;6218572;28;20229;-52
2021/03/03 02:39:05;;;;;;;23.03;18.57;;;;;;;5.84;61.67;102829.75;6215410;28;20229;-54
2021/03/03 02:42:26;;;;;;;23.70;20.73;;;;;;;5.87;61.72;102829.00;6217167;28;20748;-56
2021/03/03 02:45:48;;;;;;;20.33;18.23;;;;;;;5.77;61.86;102821.69;6213203;28;20229;-51
2021/03/03 02:49:08;;;;;;;21.23;18.97;;;;;;;5.88;61.67;102821.31;6216909;28;20257;-53
2021/03/03 02:52:29;;;;;;;20.57;18.33;;;;;;;5.90;62.08;102818.81;6204047;28;20248;-57
2021/03/03 02:55:49;;;;;;;24.13;19.67;;;;;;;6.00;61.00;102814.94;6194561;28;20615;-56
2021/03/03 02:59:22;;;;;;;22.87;18.07;;;;;;;5.81;62.21;102813.22;6189821;28;20320;-54
2021/03/03 03:02:46;;;;;;;24.20;20.27;;;;;;;5.54;63.02;102818.97;6209583;28;20237;-54
2021/03/03 03:06:12;;;;;;;23.83;21.23;;;;;;;5.45;63.41;102808.25;6217589;28;20233;-54
2021/03/03 03:09:34;;;;;;;23.27;20.23;;;;;;;5.46;63.47;102805.72;6205632;28;20523;-55
2021/03/03 03:12:58;;;;;;;22.53;19.43;;;;;;;5.59;63.13;102806.28;6207163;28;20230;-55
2021/03/03 03:16:19;;;;;;;22.33;20.00;;;;;;;5.10;64.61;102802.41;6206628;28;20217;-54
2021/03/03 03:19:42;;;;;;;27.10;21.40;;;;;;;5.10;64.73;102805.00;6213617;28;20233;-56
2021/03/03 03:23:04;;;;;;;25.57;21.20;;;;;;;5.24;63.50;102806.47;6200877;28;20499;-53
2021/03/03 03:26:25;;;;;;;24.50;21.10;;;;;;;5.40;63.72;102795.13;6201948;28;20809;-56
2021/03/03 03:29:46;;;;;;;27.20;21.47;;;;;;;5.41;63.22;102796.91;6189729;28;20264;-54
2021/03/03 03:33:08;;;;;;;28.87;21.73;;;;;;;5.46;62.86;102794.50;6215202;28;20531;-56
2021/03/03 03:36:31;;;;;;;29.90;22.20;;;;;;;5.40;63.96;102787.38;6216022;28;20233;-55
2021/03/03 03:39:51;;;;;;;36.67;24.50;;;;;;;5.36;63.46;102797.50;6212932;28;20241;-56
2021/03/03 03:43:13;;;;;;;30.53;22.57;;;;;;;5.32;64.63;102787.03;6215140;28;20248;-52
2021/03/03 03:46:34;;;;;;;32.83;23.13;;;;;;;5.35;64.08;102787.97;6219480;28;20229;-54
2021/03/03 03:49:56;;;;;;;30.53;20.20;;;;;;;5.42;63.88;102780.56;6211106;28;20233;-51
2021/03/03 03:53:16;;;;;;;26.73;19.13;;;;;;;5.36;63.50;102782.00;6205004;28;20241;-54
2021/03/03 03:56:39;;;;;;;29.73;20.70;;;;;;;5.13;64.02;102787.03;6212808;28;20241;-55
2021/03/03 04:00:00;;;;;;;27.57;18.63;;;;;;;4.43;66.85;102780.38;6192336;28;20228;-53
2021/03/03 04:03:21;;;;;;;25.63;20.10;;;;;;;4.64;66.28;102792.53;6215502;28;20252;-55
2021/03/03 04:06:42;;;;;;;27.83;19.30;;;;;;;4.88;65.52;102792.78;6215261;28;20232;-51
2021/03/03 04:10:03;;;;;;;42.67;18.83;;;;;;;4.18;67.01;102801.53;6209345;28;20232;-51
2021/03/03 04:13:24;;;;;;;74.50;23.80;;;;;;;3.78;69.06;102798.66;6214754;28;20225;-52
2021/03/03 04:16:44;;;;;;;29.77;20.20;;;;;;;4.17;67.86;102793.72;6209056;28;20229;-53
2021/03/03 04:20:07;;;;;;;36.50;19.53;;;;;;;4.09;68.31;102791.66;6214733;28;20232;-56
2021/03/03 04:23:28;;;;;;;23.47;18.27;;;;;;;4.56;67.06;102797.34;6214502;28;20225;-56
2021/03/03 04:26:49;;;;;;;21.70;17.80;;;;;;;4.41;66.92;102794.91;6181377;28;20231;-56
2021/03/03 04:30:12;;;;;;;55.13;20.03;;;;;;;4.35;66.59;102797.19;6194546;28;20238;-54
2021/03/03 04:33:32;;;;;;;44.20;19.87;;;;;;;4.56;65.96;102799.03;6196011;28;20252;-56
2021/03/03 04:36:53;;;;;;;23.37;19.53;;;;;;;4.82;65.37;102797.66;6189625;28;20234;-51
2021/03/03 04:40:16;;;;;;;77.60;21.57;;;;;;;4.16;66.33;102807.44;6202615;28;20507;-54
2021/03/03 04:43:36;;;;;;;24.63;19.50;;;;;;;4.08;68.05;102810.50;6214788;28;20244;-55
2021/03/03 04:46:57;;;;;;;56.30;21.00;;;;;;;3.34;69.46;102811.03;6198930;28;20225;-50
2021/03/03 04:50:17;;;;;;;110.27;21.57;;;;;;;3.34;69.51;102806.78;6214264;28;20240;-55
2021/03/03 04:53:38;;;;;;;81.50;19.33;;;;;;;3.52;69.66;102796.53;6211759;28;20655;-52
2021/03/03 04:56:59;;;;;;;21.20;16.07;;;;;;;4.00;68.50;102783.47;6213644;28;20221;-53
2021/03/03 05:00:21;;;;;;;22.90;17.20;;;;;;;4.30;67.39;102791.84;6167948;28;20591;-54
2021/03/03 05:03:41;;;;;;;36.47;30.57;;;;;;;4.53;67.11;102785.16;6195969;28;20228;-55
2021/03/03 05:07:01;;;;;;;42.63;32.47;;;;;;;4.19;68.09;102782.69;6202997;28;20229;-51
2021/03/03 05:10:22;;;;;;;59.20;35.53;;;;;;;4.49;66.75;102790.13;6191167;28;20760;-53
2021/03/03 05:13:44;;;;;;;29.70;19.30;;;;;;;4.74;65.54;102776.66;6224944;28;20229;-54
2021/03/03 05:17:04;;;;;;;25.80;18.43;;;;;;;4.77;64.49;102771.66;6196039;28;20225;-55
2021/03/03 05:20:25;;;;;;;36.40;23.90;;;;;;;4.70;66.54;102777.34;6190199;28;20226;-55
2021/03/03 05:23:45;;;;;;;30.23;24.63;;;;;;;4.81;67.07;102765.81;6183974;28;20233;-53
2021/03/03 05:27:06;;;;;;;36.70;29.17;;;;;;;4.81;66.61;102768.41;6190515;28;20229;-56
2021/03/03 05:30:28;;;;;;;33.63;21.97;;;;;;;4.87;64.62;102766.09;6205423;28;20265;-55
2021/03/03 05:33:48;;;;;;;32.47;16.00;;;;;;;4.91;64.15;102756.78;6205170;28;20262;-51
2021/03/03 05:37:09;;;;;;;44.60;18.83;;;;;;;4.48;65.52;102763.44;6209161;28;20854;-54
2021/03/03 05:40:29;;;;;;;24.07;19.60;;;;;;;4.69;65.59;102760.06;6210765;28;20229;-54
2021/03/03 05:43:50;;;;;;;27.93;22.60;;;;;;;4.77;64.96;102757.84;6195859;28;20261;-54
2021/03/03 05:47:14;;;;;;;26.10;17.97;;;;;;;4.64;63.69;102761.56;6202658;28;20670;-55
2021/03/03 05:50:35;;;;;;;34.10;17.37;;;;;;;4.12;65.32;102763.44;6215613;28;20234;-52
2021/03/03 05:53:56;;;;;;;24.33;17.53;;;;;;;4.43;64.52;102762.31;6196733;28;20470;-51
2021/03/03 05:57:17;;;;;;;37.37;16.27;;;;;;;4.30;64.68;102762.53;6207534;28;20222;-56
2021/03/03 06:00:38;;;;;;;19.87;16.73;;;;;;;4.38;64.40;102763.81;6184898;28;20245;-51
2021/03/03 06:04:00;;;;;;;18.20;16.23;;;;;;;4.23;64.87;102757.94;6213174;28;20320;-53
2021/03/03 06:07:21;;;;;;;21.27;15.47;;;;;;;4.08;64.99;102746.03;6207999;28;20233;-55
2021/03/03 06:10:42;;;;;;;18.70;14.70;;;;;;;4.39;64.84;102754.38;6197574;28;20320;-55
2021/03/03 06:14:03;;;;;;;15.77;14.17;;;;;;;4.44;65.41;102753.78;6210464;28;20272;-51
2021/03/03 06:17:24;;;;;;;27.97;23.47;;;;;;;4.45;66.14;102750.38;6210876;28;20320;-55
2021/03/03 06:20:48;;;;;;;27.93;18.67;;;;;;;4.05;66.27;102743.34;6212192;28;20232;-54
2021/03/03 06:24:10;;;;;;;20.97;16.03;;;;;;;4.22;64.76;102736.38;6218288;28;20340;-52
2021/03/03 06:27:38;;;;;;;20.53;16.77;;;;;;;4.31;63.77;102739.41;6207263;28;20233;-53
2021/03/03 06:30:59;;;;;;;29.83;16.47;;;;;;;3.89;64.91;102738.22;6214189;28;20335;-53
2021/03/03 06:34:21;;;;;;;17.63;15.63;;;;;;;3.76;64.75;102736.72;6210110;28;20237;-55
2021/03/03 06:37:53;;;;;;;46.67;15.60;;;;;;;3.69;64.20;102738.13;6203414;28;21329;-54
2021/03/03 06:41:13;;;;;;;31.47;16.20;;;;;;;2.73;67.88;102745.22;6216642;28;20237;-55
2021/03/03 06:44:54;;;;;;;26.50;16.57;;;;;;;2.95;67.34;102739.50;6203799;28;20221;-56
2021/03/03 06:48:37;;;;;;;18.13;13.83;;;;;;;3.43;66.50;102741.06;6189585;28;20832;-55
2021/03/03 06:51:58;;;;;;;18.63;14.80;;;;;;;3.73;65.82;102729.75;6204348;28;20221;-51
2021/03/03 06:55:20;;;;;;;21.80;15.20;;;;;;;3.47;65.15;102735.28;6182971;28;20230;-54
2021/03/03 06:58:40;;;;;;;18.67;14.67;;;;;;;3.11;67.01;102720.59;6194284;28;20237;-56
2021/03/03 07:02:02;;;;;;;17.67;14.77;;;;;;;3.68;65.59;102720.00;6209583;28;20317;-55
2021/03/03 07:05:22;;;;;;;17.80;13.80;;;;;;;4.05;64.50;102714.97;6211463;28;20229;-49
2021/03/03 07:08:56;;;;;;;20.43;15.00;;;;;;;3.77;65.02;102710.16;6204405;28;20229;-54
2021/03/03 07:12:23;;;;;;;26.30;15.97;;;;;;;4.26;63.11;102716.78;6203369;28;20252;-54
2021/03/03 07:15:44;;;;;;;21.70;16.77;;;;;;;3.57;65.78;102719.50;6208464;28;20225;-54
2021/03/03 07:19:19;;;;;;;32.00;24.87;;;;;;;3.77;65.98;102725.63;6212428;28;20241;-53
2021/03/03 07:22:41;;;;;;;29.27;22.77;;;;;;;4.04;64.96;102720.94;6211217;28;20606;-53
2021/03/03 07:26:01;;;;;;;23.90;14.63;;;;;;;3.46;64.82;102725.78;6212302;28;20739;-55
2021/03/03 07:29:22;;;;;;;22.03;14.90;;;;;;;2.99;68.30;102727.69;6211547;28;20626;-52
2021/03/03 07:32:44;;;;;;;24.63;16.83;;;;;;;3.05;68.09;102721.97;6207694;28;20229;-53
2021/03/03 07:36:06;;;;;;;20.10;16.30;;;;;;;3.66;66.58;102722.50;6189393;28;20226;-55
2021/03/03 07:39:33;;;;;;;31.90;16.80;;;;;;;3.49;66.34;102719.09;6200609;28;20233;-53
2021/03/03 07:42:55;;;;;;;21.50;16.53;;;;;;;3.49;66.72;102726.84;6212856;28;20260;-55
2021/03/03 07:46:18;;;;;;;22.10;17.40;;;;;;;3.19;68.43;102718.41;6188271;28;20615;-55
2021/03/03 07:49:40;;;;;;;44.53;17.87;;;;;;;2.78;69.78;102718.84;6212211;28;20245;-53
2021/03/03 07:53:01;;;;;;;24.27;17.27;;;;;;;3.55;67.83;102705.66;6194658;28;20316;-54
2021/03/03 07:56:24;;;;;;;20.27;17.90;;;;;;;4.23;65.64;102702.06;6194720;28;20252;-53
2021/03/03 07:59:45;;;;;;;20.60;17.63;;;;;;;3.99;65.92;102695.72;6190006;28;20226;-56
2021/03/03 08:03:07;;;;;;;29.87;17.90;;;;;;;3.68;66.46;102695.16;6190398;28;20229;-53
2021/03/03 08:06:34;;;;;;;21.43;17.03;;;;;;;4.71;76.51;102688.75;6184730;28;20238;-53
2021/03/03 08:10:28;;;;;;;21.53;17.87;;;;;;;5.29;63.80;102698.16;6215765;28;20233;-56
2021/03/03 08:13:50;;;;;;;21.37;16.53;;;;;;;5.02;63.41;102697.84;6207365;28;20236;-54
2021/03/03 08:17:11;;;;;;;17.87;15.97;;;;;;;5.52;61.97;102693.97;6200429;28;20245;-56
2021/03/03 08:20:32;;;;;;;19.50;17.40;;;;;;;6.07;60.39;102683.31;6202400;28;20614;-53
2021/03/03 08:23:53;;;;;;;23.67;17.93;;;;;;;5.66;61.18;102695.44;6211865;28;20229;-54
2021/03/03 08:27:36;;;;;;;24.87;19.80;;;;;;;4.93;64.04;102688.91;6207146;28;20229;-56
2021/03/03 08:31:36;;;;;;;25.10;18.70;;;;;;;5.40;63.71;102683.13;6191585;28;20221;-58
2021/03/03 08:34:56;;;;;;;21.87;17.83;;;;;;;5.25;63.57;102673.94;6203508;28;20225;-53
2021/03/03 08:38:17;;;;;;;23.97;18.83;;;;;;;5.36;63.15;102673.50;6196390;28;20225;-56
2021/03/03 08:41:40;;;;;;;27.90;20.03;;;;;;;4.54;65.60;102667.38;6186464;28;20805;-53
2021/03/03 08:45:09;;;;;;;29.90;19.60;;;;;;;5.19;64.52;102658.16;6169604;28;20619;-57
2021/03/03 08:48:30;;;;;;;24.63;18.47;;;;;;;5.91;62.41;102655.94;6191639;28;20881;-57
2021/03/03 08:51:50;;;;;;;27.40;24.47;;;;;;;6.30;61.69;102660.03;6198979;28;20344;-57
2021/03/03 08:55:29;;;;;;;23.70;19.67;;;;;;;6.66;59.56;102649.28;6205512;28;20234;-54
2021/03/03 08:58:50;;;;;;;26.57;23.67;;;;;;;6.98;59.43;102645.25;6192565;28;20229;-56
2021/03/03 09:02:12;;;;;;;28.57;19.37;;;;;;;7.08;59.46;102638.69;6199825;28;20230;-59
2021/03/03 09:05:33;;;;;;;25.47;19.07;;;;;;;6.85;59.74;102635.28;6211268;28;20261;-54
2021/03/03 09:09:01;;;;;;;24.00;20.33;;;;;;;6.95;59.79;102644.28;6188038;28;20230;-56
2021/03/03 09:12:24;;;;;;;25.63;19.70;;;;;;;7.05;63.10;102626.50;6197569;28;20245;-57
2021/03/03 09:16:01;;;;;;;25.37;20.93;;;;;;;7.98;59.09;102622.56;6184821;28;20222;-56
2021/03/03 09:19:22;;;;;;;28.20;21.93;;;;;;;8.58;56.18;102626.09;6169808;28;20249;-57
2021/03/03 09:22:46;;;;;;;28.23;21.43;;;;;;;7.88;56.68;102617.94;6197469;28;20230;-56
2021/03/03 09:26:18;;;;;;;41.93;20.70;;;;;;;8.31;56.37;102616.63;6209464;28;20234;-58
2021/03/03 09:29:41;;;;;;;24.57;21.23;;;;;;;8.71;55.27;102610.00;6212517;28;20221;-58
2021/03/03 09:33:05;;;;;;;24.07;19.37;;;;;;;9.31;54.45;102605.50;6191602;28;20226;-58
2021/03/03 09:36:26;;;;;;;26.00;20.90;;;;;;;9.22;54.07;102608.72;6196677;28;20241;-59
2021/03/03 09:39:51;;;;;;;27.13;19.90;;;;;;;9.63;52.41;102599.34;6186957;28;20500;-55
2021/03/03 09:43:15;;;;;;;27.10;22.77;;;;;;;10.42;51.58;102594.09;6211467;28;20595;-57
2021/03/03 09:47:01;;;;;;;24.90;22.23;;;;;;;10.71;50.10;102585.97;6215709;28;20572;-59
2021/03/03 09:50:24;;;;;;;28.50;22.10;;;;;;;10.64;50.37;102584.09;6189910;28;20616;-56
2021/03/03 09:53:52;;;;;;;20.40;18.20;;;;;;;10.43;51.42;102580.25;6187506;28;20229;-56
2021/03/03 09:57:19;;;;;;;22.50;20.07;;;;;;;11.72;47.53;102575.44;6176542;28;20229;-57
2021/03/03 10:00:40;;;;;;;20.80;17.73;;;;;;;12.14;46.50;102576.94;6194946;28;20229;-56
2021/03/03 10:04:01;;;;;;;21.97;18.80;;;;;;;13.70;44.52;102560.94;6210974;28;20269;-56
2021/03/03 10:07:24;;;;;;;21.13;17.87;;;;;;;15.31;38.89;102560.47;6196960;28;20228;-59
2021/03/03 10:10:48;;;;;;;18.87;16.83;;;;;;;17.79;34.96;102556.34;6206343;28;20229;-59
2021/03/03 10:14:09;;;;;;;21.80;18.63;;;;;;;18.67;32.26;102562.22;6195704;28;20608;-59
2021/03/03 10:17:35;;;;;;;20.23;18.13;;;;;;;21.14;28.23;102559.91;6212989;28;20468;-59
2021/03/03 10:20:57;;;;;;;19.20;16.27;;;;;;;20.18;28.43;102561.25;6206666;28;20229;-60
2021/03/03 10:24:20;;;;;;;20.80;17.50;;;;;;;20.95;27.26;102565.66;6210202;28;20230;-59
2021/03/03 10:27:42;;;;;;;22.85;18.10;;;;;;;21.57;27.10;102551.69;6215389;28;20246;-60
2021/03/03 10:31:04;;;;;;;20.77;16.00;;;;;;;24.30;24.10;102551.50;6207785;28;20325;-61
2021/03/03 10:34:28;;;;;;;22.20;18.65;;;;;;;23.06;24.58;102548.94;6199876;28;20623;-55
2021/03/03 10:37:50;;;;;;;21.40;19.10;;;;;;;23.34;24.05;102554.19;6204160;28;20747;-58
2021/03/03 10:41:21;;;;;;;20.23;17.85;;;;;;;24.35;23.59;102535.34;6209373;28;20241;-59
2021/03/03 10:44:49;;;;;;;20.00;17.98;;;;;;;23.18;25.45;102540.53;6214485;28;20598;-60
2021/03/03 10:48:24;;;;;;;23.90;18.67;;;;;;;23.49;24.56;102533.28;6188710;28;20225;-58
2021/03/03 10:51:44;;;;;;;22.00;18.70;;;;;;;25.45;21.78;102535.16;6212175;28;20237;-60
2021/03/03 10:55:22;;;;;;;19.20;17.27;;;;;;;26.72;20.93;102524.78;6204413;28;20225;-61
2021/03/03 10:58:43;;;;;;;20.50;18.20;;;;;;;25.61;22.38;102518.47;6196368;28;20220;-60
2021/03/03 11:02:05;;;;;;;24.80;17.42;;;;;;;25.68;21.44;102520.78;6199816;28;20318;-60
2021/03/03 11:05:26;;;;;;;21.23;18.42;;;;;;;27.28;20.23;102513.00;6209863;28;20251;-61
2021/03/03 11:08:47;;;;;;;23.02;19.25;;;;;;;26.21;20.23;102513.03;6206819;28;20272;-61
2021/03/03 11:12:10;;;;;;;21.95;19.05;;;;;;;24.05;23.23;102514.34;6190473;28;20718;-60
2021/03/03 11:15:30;;;;;;;22.27;17.55;;;;;;;25.72;21.28;102494.84;6202855;28;20232;-60
2021/03/03 11:18:51;;;;;;;21.98;19.67;;;;;;;27.71;19.85;102493.75;6203755;28;20610;-61
2021/03/03 11:22:11;;;;;;;18.15;16.17;;;;;;;28.02;18.76;102492.91;6209354;28;20233;-60
2021/03/03 11:25:32;;;;;;;19.45;17.40;;;;;;;28.49;18.16;102485.75;6204313;28;20229;-60
2021/03/03 11:28:54;;;;;;;18.45;15.88;;;;;;;29.08;18.27;102467.06;6205022;28;20233;-61
2021/03/03 11:32:14;;;;;;;21.88;17.38;;;;;;;25.42;21.77;102475.81;6212102;28;20252;-60
2021/03/03 11:35:35;;;;;;;19.25;17.20;;;;;;;24.39;22.72;102475.72;6186392;28;20345;-61
2021/03/03 11:38:55;;;;;;;22.85;17.48;;;;;;;25.52;22.03;102461.97;6179859;28;20245;-59
2021/03/03 11:42:16;;;;;;;20.08;18.05;;;;;;;28.57;18.24;102462.06;6207737;28;20238;-61
2021/03/03 11:45:37;;;;;;;18.27;16.33;;;;;;;23.68;24.52;102457.19;6191101;28;20641;-59
2021/03/03 11:48:58;;;;;;;20.85;18.58;;;;;;;23.82;23.86;102447.84;6196600;28;20230;-60
2021/03/03 11:52:19;;;;;;;22.23;18.67;;;;;;;23.92;23.61;102446.56;6199256;28;20233;-59
2021/03/03 11:55:39;;;;;;;20.00;17.23;;;;;;;21.85;26.55;102441.31;6188282;28;20237;-59
2021/03/03 11:59:00;;;;;;;22.52;18.63;;;;;;;22.33;26.03;102438.06;6196562;28;20694;-60
2021/03/03 12:02:21;;;;;;;20.80;18.65;;;;;;;17.50;34.35;102434.59;6200487;28;20233;-59
2021/03/03 12:05:42;;;;;;;19.63;17.50;;;;;;;20.17;29.64;102422.88;6181141;28;20534;-59
2021/03/03 12:09:03;;;;;;;21.98;18.75;;;;;;;20.44;29.10;102425.75;6171351;28;20229;-59
2021/03/03 12:12:24;;;;;;;20.30;17.38;;;;;;;19.21;31.86;102417.88;6214223;28;20240;-60
2021/03/03 12:15:44;;;;;;;23.90;19.60;;;;;;;18.46;33.47;102407.78;6209852;28;20237;-59
2021/03/03 12:19:06;;;;;;;25.30;19.50;;;;;;;18.26;33.55;102405.47;6207094;28;20863;-56
2021/03/03 12:22:26;;;;;;;23.10;19.50;;;;;;;18.93;32.60;102394.66;6210895;28;20602;-61
2021/03/03 12:25:46;;;;;;;23.58;18.50;;;;;;;20.11;30.43;102390.41;6196257;28;20244;-62
2021/03/03 12:29:07;;;;;;;23.98;19.40;;;;;;;21.03;28.48;102383.63;6181890;28;20237;-59
2021/03/03 12:32:28;;;;;;;26.15;19.35;;;;;;;22.08;26.62;102376.94;6205219;28;20241;-58
2021/03/03 12:35:49;;;;;;;22.65;18.80;;;;;;;23.59;24.82;102375.13;6210904;28;20530;-57
2021/03/03 12:39:10;;;;;;;20.98;18.00;;;;;;;20.61;28.58;102373.28;6188409;28;20237;-61
2021/03/03 12:42:31;;;;;;;24.40;19.58;;;;;;;22.81;25.69;102355.00;6204036;28;20319;-58
2021/03/03 12:45:51;;;;;;;23.65;17.98;;;;;;;23.67;24.92;102362.41;6204774;28;20228;-58
2021/03/03 12:49:12;;;;;;;23.30;17.65;;;;;;;24.48;24.07;102349.31;6198428;28;20242;-59
2021/03/03 12:52:33;;;;;;;24.25;19.60;;;;;;;22.22;26.14;102341.09;6183838;28;20230;-60
2021/03/03 12:55:54;;;;;;;24.65;18.92;;;;;;;19.58;30.51;102353.69;6205863;28;20284;-59
2021/03/03 12:59:15;;;;;;;23.75;18.90;;;;;;;18.47;33.15;102338.28;6206669;28;20241;-58
2021/03/03 13:02:36;;;;;;;23.38;18.10;;;;;;;18.62;33.08;102334.50;6210462;28;20229;-58
2021/03/03 13:05:57;;;;;;;23.50;19.08;;;;;;;18.12;33.89;102330.13;6222615;28;20224;-56
2021/03/03 13:09:19;;;;;;;27.38;19.98;;;;;;;17.23;35.90;102327.00;6206812;28;20299;-54
2021/03/03 13:12:39;;;;;;;24.90;18.50;;;;;;;19.39;31.52;102321.56;6208087;28;20943;-58
2021/03/03 13:16:00;;;;;;;23.02;20.17;;;;;;;18.41;33.91;102319.06;6213595;28;20606;-58
2021/03/03 13:19:20;;;;;;;29.67;20.83;;;;;;;19.14;32.43;102316.81;6211596;28;20229;-55
2021/03/03 13:22:41;;;;;;;28.77;19.05;;;;;;;16.46;36.45;102315.56;6188564;28;20238;-56
2021/03/03 13:26:03;;;;;;;29.08;21.25;;;;;;;17.64;34.94;102309.75;6215605;28;20564;-56
2021/03/03 13:29:23;;;;;;;27.38;21.65;;;;;;;19.01;32.56;102300.34;6207963;28;20241;-60
2021/03/03 13:32:44;;;;;;;29.88;20.90;;;;;;;18.41;33.28;102295.34;6188573;28;20234;-55
2021/03/03 13:36:07;;;;;;;30.15;19.70;;;;;;;19.11;32.38;102298.38;6204107;28;20233;-57
2021/03/03 13:39:28;;;;;;;29.00;22.27;;;;;;;19.74;31.31;102291.72;6204361;28;20261;-55
2021/03/03 13:42:50;;;;;;;28.75;21.58;;;;;;;18.82;32.66;102304.25;6186701;28;20237;-55
2021/03/03 13:46:11;;;;;;;26.88;21.55;;;;;;;16.76;36.37;102296.84;6195470;28;20233;-57
2021/03/03 13:49:33;;;;;;;29.40;21.95;;;;;;;16.69;36.76;102296.91;6209347;28;20233;-56
2021/03/03 13:52:54;;;;;;;30.37;22.17;;;;;;;17.49;35.38;102284.53;6215263;28;20244;-53
2021/03/03 13:56:14;;;;;;;29.47;21.47;;;;;;;17.87;34.70;102285.72;6212083;28;20619;-57
2021/03/03 13:59:36;;;;;;;27.47;20.17;;;;;;;17.54;35.78;102271.28;6195926;28;20237;-58
2021/03/03 14:02:57;;;;;;;24.33;21.70;;;;;;;16.91;36.91;102270.38;6193655;28;20237;-57
2021/03/03 14:06:17;;;;;;;32.03;23.87;;;;;;;17.00;37.10;102265.00;6196358;28;20529;-57
2021/03/03 14:09:39;;;;;;;28.17;22.13;;;;;;;16.82;37.34;102276.63;6200662;28;20237;-53
2021/03/03 14:13:00;;;;;;;29.60;21.60;;;;;;;17.14;37.52;102267.47;6189362;28;20241;-55
2021/03/03 14:16:21;;;;;;;26.90;21.50;;;;;;;17.09;37.42;102264.00;6170788;28;20234;-55
2021/03/03 14:19:43;;;;;;;23.53;16.93;;;;;;;17.99;39.82;102258.28;6201867;28;20261;-56
2021/03/03 14:23:03;;;;;;;28.53;23.20;;;;;;;18.26;36.93;102252.53;6209171;28;20237;-56
2021/03/03 14:26:24;;;;;;;24.85;20.50;;;;;;;18.17;37.23;102263.25;6188355;28;20568;-56
2021/03/03 14:29:44;;;;;;;25.60;20.65;;;;;;;17.74;37.01;102237.59;6213428;28;20622;-56
2021/03/03 14:33:06;;;;;;;30.33;21.90;;;;;;;17.02;37.65;102243.91;6161624;28;20226;-57
2021/03/03 14:36:27;;;;;;;26.20;20.63;;;;;;;17.18;37.66;102241.97;6213806;28;20233;-54
2021/03/03 14:39:48;;;;;;;25.70;20.83;;;;;;;18.00;36.38;102238.94;6212887;28;20229;-57
2021/03/03 14:43:09;;;;;;;28.50;22.37;;;;;;;17.42;36.85;102238.09;6195038;28;20633;-53
2021/03/03 14:46:30;;;;;;;27.80;21.97;;;;;;;15.83;40.83;102245.16;6201136;28;20237;-55
2021/03/03 14:49:51;;;;;;;28.60;23.33;;;;;;;16.33;40.29;102233.31;6195239;28;20230;-57
2021/03/03 14:53:12;;;;;;;27.93;22.70;;;;;;;16.22;40.66;102231.69;6199853;28;20240;-54
2021/03/03 14:56:34;;;;;;;28.07;22.03;;;;;;;16.13;41.05;102230.88;6206722;28;20221;-55
2021/03/03 14:59:55;;;;;;;31.27;24.57;;;;;;;16.42;40.44;102223.56;6186838;28;20255;-57
2021/03/03 15:03:16;;;;;;;28.77;24.60;;;;;;;16.92;39.22;102224.75;6211979;28;20233;-52
2021/03/03 15:06:37;;;;;;;29.13;25.53;;;;;;;16.65;39.72;102226.81;6203259;28;20621;-57
2021/03/03 15:09:58;;;;;;;32.50;25.50;;;;;;;16.41;40.20;102221.84;6214499;28;20232;-57
2021/03/03 15:13:19;;;;;;;32.03;26.37;;;;;;;15.88;41.42;102217.09;6216833;28;20233;-55
2021/03/03 15:16:39;;;;;;;31.67;25.70;;;;;;;15.82;41.95;102217.16;6190347;28;20321;-55
2021/03/03 15:20:00;;;;;;;29.33;25.40;;;;;;;15.82;42.05;102211.91;6178817;28;20226;-56
2021/03/03 15:23:22;;;;;;;32.10;25.40;;;;;;;15.04;44.01;102209.78;6187088;28;20238;-57
2021/03/03 15:26:42;;;;;;;35.67;25.77;;;;;;;15.38;42.97;102199.09;6220140;28;20233;-57